sensor_id;sensor_type;location;lat;lon;timestamp;temperature;humidity
23120;DHT22;11729;50.836;4.330;2023-05-10T00:01:59;14.40;99.90
23120;DHT22;11729;50.836;4.330;2023-05-10T00:04:26;14.30;99.90
23120;DHT22;11729;50.836;4.330;2023-05-10T00:06:54;14.20;99.90
23120;DHT22;11729;50.836;4.330;2023-05-10T00:09:20;14.30;99.90
23120;DHT22;11729;50.836;4.330;2023-05-10T00:11:45;14.30;99.90
23120;DHT22;11729;50.836;4.330;2023-05-10T00:14:11;14.30;99.90
23120;DHT22;11729;50.836;4.330;2023-05-10T00:16:37;14.30;99.90
23120;DHT22;11729;50.836;4.330;2023-05-10T00:19:02;14.30;99.90
23120;DHT22;11729;50.836;4.330;2023-05-10T00:21:28;14.20;99.90
23120;DHT22;11729;50.836;4.330;2023-05-10T00:23:56;14.30;99.90
23120;DHT22;11729;50.836;4.330;2023-05-10T00:26:22;14.50;99.90
23120;DHT22;11729;50.836;4.330;2023-05-10T00:28:48;14.50;99.90
23120;DHT22;11729;50.836;4.330;2023-05-10T00:31:13;14.50;99.90
23120;DHT22;11729;50.836;4.330;2023-05-10T00:33:40;14.60;99.90
23120;DHT22;11729;50.836;4.330;2023-05-10T00:36:05;14.70;99.90
23120;DHT22;11729;50.836;4.330;2023-05-10T00:38:33;14.60;99.90
23120;DHT22;11729;50.836;4.330;2023-05-10T00:40:58;14.50;99.90
23120;DHT22;11729;50.836;4.330;2023-05-10T00:43:24;14.60;99.90
23120;DHT22;11729;50.836;4.330;2023-05-10T00:45:50;14.60;99.90
23120;DHT22;11729;50.836;4.330;2023-05-10T00:48:16;14.70;99.90
23120;DHT22;11729;50.836;4.330;2023-05-10T00:50:41;14.50;99.90
23120;DHT22;11729;50.836;4.330;2023-05-10T00:53:07;14.40;99.90
23120;DHT22;11729;50.836;4.330;2023-05-10T00:55:33;14.40;99.90
23120;DHT22;11729;50.836;4.330;2023-05-10T00:57:59;14.50;99.90
23120;DHT22;11729;50.836;4.330;2023-05-10T01:00:25;14.50;99.90
23120;DHT22;11729;50.836;4.330;2023-05-10T01:02:53;14.50;99.90
23120;DHT22;11729;50.836;4.330;2023-05-10T01:05:19;14.40;99.90
23120;DHT22;11729;50.836;4.330;2023-05-10T01:07:44;14.50;99.90
23120;DHT22;11729;50.836;4.330;2023-05-10T01:10:11;14.60;99.90
23120;DHT22;11729;50.836;4.330;2023-05-10T01:12:39;14.50;99.90
23120;DHT22;11729;50.836;4.330;2023-05-10T01:15:07;14.50;99.90
23120;DHT22;11729;50.836;4.330;2023-05-10T01:17:34;14.40;99.90
23120;DHT22;11729;50.836;4.330;2023-05-10T01:20:00;14.50;99.90
23120;DHT22;11729;50.836;4.330;2023-05-10T01:29:11;14.50;99.90
23120;DHT22;11729;50.836;4.330;2023-05-10T01:31:59;14.50;99.90
23120;DHT22;11729;50.836;4.330;2023-05-10T01:37:36;14.60;99.90
23120;DHT22;11729;50.836;4.330;2023-05-10T01:40:26;14.60;99.90
23120;DHT22;11729;50.836;4.330;2023-05-10T01:43:04;14.60;99.90
23120;DHT22;11729;50.836;4.330;2023-05-10T01:45:59;14.60;99.90
23120;DHT22;11729;50.836;4.330;2023-05-10T01:48:27;14.50;99.90
23120;DHT22;11729;50.836;4.330;2023-05-10T01:50:54;14.50;99.90
23120;DHT22;11729;50.836;4.330;2023-05-10T01:53:22;14.50;99.90
23120;DHT22;11729;50.836;4.330;2023-05-10T01:55:51;14.60;99.90
23120;DHT22;11729;50.836;4.330;2023-05-10T01:58:28;14.50;99.90
23120;DHT22;11729;50.836;4.330;2023-05-10T02:00:55;14.60;99.90
23120;DHT22;11729;50.836;4.330;2023-05-10T02:03:24;14.60;99.90
23120;DHT22;11729;50.836;4.330;2023-05-10T02:05:53;14.70;99.90
23120;DHT22;11729;50.836;4.330;2023-05-10T02:08:19;14.80;99.90
23120;DHT22;11729;50.836;4.330;2023-05-10T02:10:49;14.70;99.90
23120;DHT22;11729;50.836;4.330;2023-05-10T02:13:16;14.60;99.90
23120;DHT22;11729;50.836;4.330;2023-05-10T02:15:43;14.60;99.90
23120;DHT22;11729;50.836;4.330;2023-05-10T02:18:10;14.50;99.90
23120;DHT22;11729;50.836;4.330;2023-05-10T02:20:37;14.50;99.90
23120;DHT22;11729;50.836;4.330;2023-05-10T02:23:04;14.50;99.90
23120;DHT22;11729;50.836;4.330;2023-05-10T02:25:30;14.50;99.90
23120;DHT22;11729;50.836;4.330;2023-05-10T02:27:57;14.60;99.90
23120;DHT22;11729;50.836;4.330;2023-05-10T02:30:26;14.50;99.90
23120;DHT22;11729;50.836;4.330;2023-05-10T02:32:52;14.50;99.90
23120;DHT22;11729;50.836;4.330;2023-05-10T02:35:19;14.50;99.90
23120;DHT22;11729;50.836;4.330;2023-05-10T02:37:46;14.60;99.90
23120;DHT22;11729;50.836;4.330;2023-05-10T02:40:13;14.60;99.90
23120;DHT22;11729;50.836;4.330;2023-05-10T02:42:41;14.60;99.90
23120;DHT22;11729;50.836;4.330;2023-05-10T02:45:11;14.60;99.90
23120;DHT22;11729;50.836;4.330;2023-05-10T02:47:37;14.50;99.90
23120;DHT22;11729;50.836;4.330;2023-05-10T02:50:03;14.50;99.90
23120;DHT22;11729;50.836;4.330;2023-05-10T02:52:34;14.60;99.90
23120;DHT22;11729;50.836;4.330;2023-05-10T02:55:02;14.60;99.90
23120;DHT22;11729;50.836;4.330;2023-05-10T02:57:33;14.60;99.90
23120;DHT22;11729;50.836;4.330;2023-05-10T02:59:59;14.60;99.90
23120;DHT22;11729;50.836;4.330;2023-05-10T03:02:26;14.60;99.90
23120;DHT22;11729;50.836;4.330;2023-05-10T03:04:51;14.70;99.90
23120;DHT22;11729;50.836;4.330;2023-05-10T03:07:17;14.60;99.90
23120;DHT22;11729;50.836;4.330;2023-05-10T03:09:44;14.70;99.90
23120;DHT22;11729;50.836;4.330;2023-05-10T03:12:23;14.70;99.90
23120;DHT22;11729;50.836;4.330;2023-05-10T03:20:50;14.20;99.90
23120;DHT22;11729;50.836;4.330;2023-05-10T03:23:29;14.20;99.90
23120;DHT22;11729;50.836;4.330;2023-05-10T03:25:55;14.10;99.90
23120;DHT22;11729;50.836;4.330;2023-05-10T03:28:24;14.10;99.90
23120;DHT22;11729;50.836;4.330;2023-05-10T03:30:52;14.20;99.90
23120;DHT22;11729;50.836;4.330;2023-05-10T03:33:18;14.00;99.90
23120;DHT22;11729;50.836;4.330;2023-05-10T03:35:45;14.00;99.90
23120;DHT22;11729;50.836;4.330;2023-05-10T03:38:12;14.10;99.90
23120;DHT22;11729;50.836;4.330;2023-05-10T03:40:37;14.00;99.90
23120;DHT22;11729;50.836;4.330;2023-05-10T03:43:03;14.20;99.90
23120;DHT22;11729;50.836;4.330;2023-05-10T03:45:29;14.40;99.90
23120;DHT22;11729;50.836;4.330;2023-05-10T03:47:58;14.20;99.90
23120;DHT22;11729;50.836;4.330;2023-05-10T03:50:25;14.40;99.90
23120;DHT22;11729;50.836;4.330;2023-05-10T03:52:51;14.40;99.90
23120;DHT22;11729;50.836;4.330;2023-05-10T03:55:17;14.20;99.90
23120;DHT22;11729;50.836;4.330;2023-05-10T03:57:42;14.20;99.90
23120;DHT22;11729;50.836;4.330;2023-05-10T04:00:09;14.30;99.90
23120;DHT22;11729;50.836;4.330;2023-05-10T04:02:35;14.30;99.90
23120;DHT22;11729;50.836;4.330;2023-05-10T04:05:01;14.20;99.90
23120;DHT22;11729;50.836;4.330;2023-05-10T04:07:27;14.20;99.90
23120;DHT22;11729;50.836;4.330;2023-05-10T04:09:52;14.20;99.90
23120;DHT22;11729;50.836;4.330;2023-05-10T04:12:18;14.20;99.90
23120;DHT22;11729;50.836;4.330;2023-05-10T04:14:43;14.10;99.90
23120;DHT22;11729;50.836;4.330;2023-05-10T04:17:09;14.20;99.90
23120;DHT22;11729;50.836;4.330;2023-05-10T04:19:35;14.60;99.90
23120;DHT22;11729;50.836;4.330;2023-05-10T04:22:02;14.90;99.90
23120;DHT22;11729;50.836;4.330;2023-05-10T04:24:28;14.90;99.90
23120;DHT22;11729;50.836;4.330;2023-05-10T04:26:55;14.80;99.90
23120;DHT22;11729;50.836;4.330;2023-05-10T04:29:20;14.60;99.90
23120;DHT22;11729;50.836;4.330;2023-05-10T04:31:46;14.60;99.90
23120;DHT22;11729;50.836;4.330;2023-05-10T04:34:12;14.60;99.90
23120;DHT22;11729;50.836;4.330;2023-05-10T04:36:38;14.60;99.90
23120;DHT22;11729;50.836;4.330;2023-05-10T04:39:04;14.50;99.90
23120;DHT22;11729;50.836;4.330;2023-05-10T04:41:30;14.50;99.90
23120;DHT22;11729;50.836;4.330;2023-05-10T04:43:55;14.60;99.90
23120;DHT22;11729;50.836;4.330;2023-05-10T04:46:21;14.70;99.90
23120;DHT22;11729;50.836;4.330;2023-05-10T04:48:47;14.60;99.90
23120;DHT22;11729;50.836;4.330;2023-05-10T04:51:13;14.60;99.90
23120;DHT22;11729;50.836;4.330;2023-05-10T04:53:39;14.70;99.90
23120;DHT22;11729;50.836;4.330;2023-05-10T04:56:04;14.60;99.90
23120;DHT22;11729;50.836;4.330;2023-05-10T04:58:30;14.80;99.90
23120;DHT22;11729;50.836;4.330;2023-05-10T05:00:56;14.90;99.90
23120;DHT22;11729;50.836;4.330;2023-05-10T05:03:22;15.00;99.90
23120;DHT22;11729;50.836;4.330;2023-05-10T05:05:48;14.90;99.90
23120;DHT22;11729;50.836;4.330;2023-05-10T05:08:14;14.80;99.90
23120;DHT22;11729;50.836;4.330;2023-05-10T05:10:41;14.70;99.90
23120;DHT22;11729;50.836;4.330;2023-05-10T05:13:06;14.70;99.90
23120;DHT22;11729;50.836;4.330;2023-05-10T05:15:33;14.70;99.90
23120;DHT22;11729;50.836;4.330;2023-05-10T05:17:59;14.70;99.90
23120;DHT22;11729;50.836;4.330;2023-05-10T05:20:25;14.50;99.90
23120;DHT22;11729;50.836;4.330;2023-05-10T05:22:50;14.30;99.90
23120;DHT22;11729;50.836;4.330;2023-05-10T05:25:16;14.10;99.90
23120;DHT22;11729;50.836;4.330;2023-05-10T05:27:41;14.00;99.90
23120;DHT22;11729;50.836;4.330;2023-05-10T05:30:07;14.00;99.90
23120;DHT22;11729;50.836;4.330;2023-05-10T05:32:33;13.80;99.90
23120;DHT22;11729;50.836;4.330;2023-05-10T05:34:59;13.80;99.90
23120;DHT22;11729;50.836;4.330;2023-05-10T05:37:25;13.90;99.90
23120;DHT22;11729;50.836;4.330;2023-05-10T05:39:51;13.90;99.90
23120;DHT22;11729;50.836;4.330;2023-05-10T05:42:17;13.90;99.90
23120;DHT22;11729;50.836;4.330;2023-05-10T05:44:44;14.10;99.90
23120;DHT22;11729;50.836;4.330;2023-05-10T05:47:10;14.30;99.90
23120;DHT22;11729;50.836;4.330;2023-05-10T05:49:36;14.30;99.90
23120;DHT22;11729;50.836;4.330;2023-05-10T05:52:02;14.10;99.90
23120;DHT22;11729;50.836;4.330;2023-05-10T05:54:30;14.20;99.90
23120;DHT22;11729;50.836;4.330;2023-05-10T05:56:56;14.10;99.90
23120;DHT22;11729;50.836;4.330;2023-05-10T05:59:22;13.90;99.90
23120;DHT22;11729;50.836;4.330;2023-05-10T06:01:48;13.90;99.90
23120;DHT22;11729;50.836;4.330;2023-05-10T06:04:14;13.90;99.90
23120;DHT22;11729;50.836;4.330;2023-05-10T06:06:40;13.90;99.90
23120;DHT22;11729;50.836;4.330;2023-05-10T06:09:05;14.00;99.90
23120;DHT22;11729;50.836;4.330;2023-05-10T06:11:31;13.90;99.90
23120;DHT22;11729;50.836;4.330;2023-05-10T06:14:00;14.00;99.90
23120;DHT22;11729;50.836;4.330;2023-05-10T06:16:27;14.00;99.90
23120;DHT22;11729;50.836;4.330;2023-05-10T06:18:53;14.10;99.90
23120;DHT22;11729;50.836;4.330;2023-05-10T06:21:19;14.10;99.90
23120;DHT22;11729;50.836;4.330;2023-05-10T06:23:44;13.90;99.90
23120;DHT22;11729;50.836;4.330;2023-05-10T06:26:10;13.80;99.90
23120;DHT22;11729;50.836;4.330;2023-05-10T06:28:36;13.80;99.90
23120;DHT22;11729;50.836;4.330;2023-05-10T06:31:04;13.90;99.90
23120;DHT22;11729;50.836;4.330;2023-05-10T06:33:30;13.90;99.90
23120;DHT22;11729;50.836;4.330;2023-05-10T06:35:56;13.80;99.90
23120;DHT22;11729;50.836;4.330;2023-05-10T06:38:22;13.80;99.90
23120;DHT22;11729;50.836;4.330;2023-05-10T06:40:48;13.90;99.90
23120;DHT22;11729;50.836;4.330;2023-05-10T06:43:14;14.00;99.90
23120;DHT22;11729;50.836;4.330;2023-05-10T06:45:39;13.90;99.90
23120;DHT22;11729;50.836;4.330;2023-05-10T06:48:06;13.80;99.90
23120;DHT22;11729;50.836;4.330;2023-05-10T06:50:32;13.80;99.90
23120;DHT22;11729;50.836;4.330;2023-05-10T06:52:59;13.90;99.90
23120;DHT22;11729;50.836;4.330;2023-05-10T06:55:25;14.00;99.90
23120;DHT22;11729;50.836;4.330;2023-05-10T06:57:51;14.00;99.90
23120;DHT22;11729;50.836;4.330;2023-05-10T07:00:18;14.10;99.90
23120;DHT22;11729;50.836;4.330;2023-05-10T07:02:44;14.20;99.90
23120;DHT22;11729;50.836;4.330;2023-05-10T07:05:10;14.30;99.90
23120;DHT22;11729;50.836;4.330;2023-05-10T07:07:38;14.30;99.90
23120;DHT22;11729;50.836;4.330;2023-05-10T07:10:04;14.30;99.90
23120;DHT22;11729;50.836;4.330;2023-05-10T07:12:30;14.30;99.90
23120;DHT22;11729;50.836;4.330;2023-05-10T07:14:56;14.30;99.90
23120;DHT22;11729;50.836;4.330;2023-05-10T07:17:21;14.40;99.90
23120;DHT22;11729;50.836;4.330;2023-05-10T07:19:47;14.40;99.90
23120;DHT22;11729;50.836;4.330;2023-05-10T07:22:14;14.40;99.90
23120;DHT22;11729;50.836;4.330;2023-05-10T07:24:40;14.40;99.90
23120;DHT22;11729;50.836;4.330;2023-05-10T07:27:06;14.50;99.90
23120;DHT22;11729;50.836;4.330;2023-05-10T07:29:32;14.50;99.90
23120;DHT22;11729;50.836;4.330;2023-05-10T07:31:57;14.50;99.90
23120;DHT22;11729;50.836;4.330;2023-05-10T07:34:23;14.50;99.90
23120;DHT22;11729;50.836;4.330;2023-05-10T07:36:49;14.60;99.90
23120;DHT22;11729;50.836;4.330;2023-05-10T07:39:14;14.50;99.90
23120;DHT22;11729;50.836;4.330;2023-05-10T07:41:40;14.60;99.90
23120;DHT22;11729;50.836;4.330;2023-05-10T07:44:06;14.60;99.90
23120;DHT22;11729;50.836;4.330;2023-05-10T07:46:32;14.80;99.90
23120;DHT22;11729;50.836;4.330;2023-05-10T07:48:57;15.00;99.90
23120;DHT22;11729;50.836;4.330;2023-05-10T07:51:23;14.90;99.90
23120;DHT22;11729;50.836;4.330;2023-05-10T07:53:49;14.80;99.90
23120;DHT22;11729;50.836;4.330;2023-05-10T07:58:46;15.00;99.90
23120;DHT22;11729;50.836;4.330;2023-05-10T08:01:11;15.10;99.90
23120;DHT22;11729;50.836;4.330;2023-05-10T08:03:37;15.00;99.90
23120;DHT22;11729;50.836;4.330;2023-05-10T08:06:03;15.20;99.90
23120;DHT22;11729;50.836;4.330;2023-05-10T08:08:28;15.20;99.90
23120;DHT22;11729;50.836;4.330;2023-05-10T08:10:54;15.40;99.90
23120;DHT22;11729;50.836;4.330;2023-05-10T08:13:20;15.50;99.90
23120;DHT22;11729;50.836;4.330;2023-05-10T08:15:46;15.70;99.90
23120;DHT22;11729;50.836;4.330;2023-05-10T08:18:13;15.60;99.90
23120;DHT22;11729;50.836;4.330;2023-05-10T08:20:39;15.50;99.90
23120;DHT22;11729;50.836;4.330;2023-05-10T08:23:05;15.20;99.90
23120;DHT22;11729;50.836;4.330;2023-05-10T08:25:33;15.20;99.90
23120;DHT22;11729;50.836;4.330;2023-05-10T08:27:58;15.30;99.90
23120;DHT22;11729;50.836;4.330;2023-05-10T08:30:24;15.20;99.90
23120;DHT22;11729;50.836;4.330;2023-05-10T08:32:50;15.20;99.90
23120;DHT22;11729;50.836;4.330;2023-05-10T08:35:15;15.30;99.90
23120;DHT22;11729;50.836;4.330;2023-05-10T08:37:41;15.50;99.90
23120;DHT22;11729;50.836;4.330;2023-05-10T08:40:08;15.50;99.90
23120;DHT22;11729;50.836;4.330;2023-05-10T08:42:40;15.50;99.90
23120;DHT22;11729;50.836;4.330;2023-05-10T08:45:07;15.60;99.90
23120;DHT22;11729;50.836;4.330;2023-05-10T08:47:36;15.60;99.90
23120;DHT22;11729;50.836;4.330;2023-05-10T08:50:03;15.60;99.90
23120;DHT22;11729;50.836;4.330;2023-05-10T08:52:30;15.60;99.90
23120;DHT22;11729;50.836;4.330;2023-05-10T08:55:01;15.70;99.90
23120;DHT22;11729;50.836;4.330;2023-05-10T08:57:27;15.80;99.90
23120;DHT22;11729;50.836;4.330;2023-05-10T08:59:53;15.70;99.90
23120;DHT22;11729;50.836;4.330;2023-05-10T09:02:20;15.80;99.90
23120;DHT22;11729;50.836;4.330;2023-05-10T09:04:46;15.80;99.90
23120;DHT22;11729;50.836;4.330;2023-05-10T09:07:12;15.90;99.90
23120;DHT22;11729;50.836;4.330;2023-05-10T09:09:38;15.70;99.90
23120;DHT22;11729;50.836;4.330;2023-05-10T09:12:04;15.70;99.90
23120;DHT22;11729;50.836;4.330;2023-05-10T09:14:30;15.50;99.90
23120;DHT22;11729;50.836;4.330;2023-05-10T09:16:59;15.40;99.90
23120;DHT22;11729;50.836;4.330;2023-05-10T09:19:25;15.40;99.90
23120;DHT22;11729;50.836;4.330;2023-05-10T09:21:51;15.50;99.90
23120;DHT22;11729;50.836;4.330;2023-05-10T09:24:16;15.30;99.90
23120;DHT22;11729;50.836;4.330;2023-05-10T09:26:48;15.20;99.90
23120;DHT22;11729;50.836;4.330;2023-05-10T09:29:14;15.10;99.90
23120;DHT22;11729;50.836;4.330;2023-05-10T09:31:52;15.20;99.90
23120;DHT22;11729;50.836;4.330;2023-05-10T09:34:32;15.20;99.90
23120;DHT22;11729;50.836;4.330;2023-05-10T09:37:00;15.10;99.90
23120;DHT22;11729;50.836;4.330;2023-05-10T09:39:36;15.00;99.90
23120;DHT22;11729;50.836;4.330;2023-05-10T09:42:09;14.90;99.90
23120;DHT22;11729;50.836;4.330;2023-05-10T09:44:35;14.80;99.90
23120;DHT22;11729;50.836;4.330;2023-05-10T09:47:01;14.80;99.90
23120;DHT22;11729;50.836;4.330;2023-05-10T09:49:28;14.80;99.90
23120;DHT22;11729;50.836;4.330;2023-05-10T09:52:20;14.70;99.90
23120;DHT22;11729;50.836;4.330;2023-05-10T09:54:53;14.60;99.90
23120;DHT22;11729;50.836;4.330;2023-05-10T09:57:23;14.70;99.90
23120;DHT22;11729;50.836;4.330;2023-05-10T09:59:50;14.70;99.90
23120;DHT22;11729;50.836;4.330;2023-05-10T10:02:16;14.60;99.90
23120;DHT22;11729;50.836;4.330;2023-05-10T10:04:42;14.60;99.90
23120;DHT22;11729;50.836;4.330;2023-05-10T10:07:09;14.50;99.90
23120;DHT22;11729;50.836;4.330;2023-05-10T10:09:35;14.50;99.90
23120;DHT22;11729;50.836;4.330;2023-05-10T10:12:02;14.60;99.90
23120;DHT22;11729;50.836;4.330;2023-05-10T10:14:28;14.50;99.90
23120;DHT22;11729;50.836;4.330;2023-05-10T10:16:54;14.70;99.90
23120;DHT22;11729;50.836;4.330;2023-05-10T10:19:21;14.70;99.90
23120;DHT22;11729;50.836;4.330;2023-05-10T10:21:48;14.60;99.90
23120;DHT22;11729;50.836;4.330;2023-05-10T10:24:14;14.60;99.90
23120;DHT22;11729;50.836;4.330;2023-05-10T10:26:42;14.60;99.90
23120;DHT22;11729;50.836;4.330;2023-05-10T10:29:25;14.80;99.90
23120;DHT22;11729;50.836;4.330;2023-05-10T10:31:57;14.80;99.90
23120;DHT22;11729;50.836;4.330;2023-05-10T10:34:26;14.90;99.90
23120;DHT22;11729;50.836;4.330;2023-05-10T10:36:54;15.00;99.90
23120;DHT22;11729;50.836;4.330;2023-05-10T10:39:20;15.00;99.90
23120;DHT22;11729;50.836;4.330;2023-05-10T10:41:54;15.10;99.90
23120;DHT22;11729;50.836;4.330;2023-05-10T10:49:52;15.50;99.90
23120;DHT22;11729;50.836;4.330;2023-05-10T10:52:30;15.60;99.90
23120;DHT22;11729;50.836;4.330;2023-05-10T10:55:11;15.60;99.90
23120;DHT22;11729;50.836;4.330;2023-05-10T11:00:29;16.00;99.90
23120;DHT22;11729;50.836;4.330;2023-05-10T11:03:08;16.20;99.90
23120;DHT22;11729;50.836;4.330;2023-05-10T11:05:40;16.30;99.90
23120;DHT22;11729;50.836;4.330;2023-05-10T11:08:25;16.10;99.90
23120;DHT22;11729;50.836;4.330;2023-05-10T11:11:02;16.10;99.90
23120;DHT22;11729;50.836;4.330;2023-05-10T11:13:43;16.10;99.90
23120;DHT22;11729;50.836;4.330;2023-05-10T11:16:23;16.20;99.90
23120;DHT22;11729;50.836;4.330;2023-05-10T11:18:57;16.20;99.90
23120;DHT22;11729;50.836;4.330;2023-05-10T11:21:24;16.20;99.90
23120;DHT22;11729;50.836;4.330;2023-05-10T11:23:57;16.20;99.90
23120;DHT22;11729;50.836;4.330;2023-05-10T11:26:25;16.40;99.90
23120;DHT22;11729;50.836;4.330;2023-05-10T11:28:53;16.40;99.90
23120;DHT22;11729;50.836;4.330;2023-05-10T11:31:22;16.60;99.90
23120;DHT22;11729;50.836;4.330;2023-05-10T11:33:53;16.70;99.90
23120;DHT22;11729;50.836;4.330;2023-05-10T11:36:28;16.90;99.90
23120;DHT22;11729;50.836;4.330;2023-05-10T11:38:55;17.10;99.90
23120;DHT22;11729;50.836;4.330;2023-05-10T11:41:22;17.50;99.90
23120;DHT22;11729;50.836;4.330;2023-05-10T11:43:50;17.90;99.90
23120;DHT22;11729;50.836;4.330;2023-05-10T11:46:19;18.20;99.90
23120;DHT22;11729;50.836;4.330;2023-05-10T11:48:49;18.40;99.90
23120;DHT22;11729;50.836;4.330;2023-05-10T11:51:23;18.80;99.90
23120;DHT22;11729;50.836;4.330;2023-05-10T11:53:50;19.10;99.90
23120;DHT22;11729;50.836;4.330;2023-05-10T11:56:17;19.50;99.90
23120;DHT22;11729;50.836;4.330;2023-05-10T11:58:43;19.80;99.90
23120;DHT22;11729;50.836;4.330;2023-05-10T12:01:09;20.10;99.90
23120;DHT22;11729;50.836;4.330;2023-05-10T12:03:36;20.30;99.90
23120;DHT22;11729;50.836;4.330;2023-05-10T12:06:02;21.00;99.90
23120;DHT22;11729;50.836;4.330;2023-05-10T12:08:29;21.50;99.90
23120;DHT22;11729;50.836;4.330;2023-05-10T12:11:09;21.40;99.90
23120;DHT22;11729;50.836;4.330;2023-05-10T12:13:38;21.50;99.90
23120;DHT22;11729;50.836;4.330;2023-05-10T12:18:56;20.90;99.90
23120;DHT22;11729;50.836;4.330;2023-05-10T12:21:22;20.30;99.90
23120;DHT22;11729;50.836;4.330;2023-05-10T12:23:51;19.90;99.90
23120;DHT22;11729;50.836;4.330;2023-05-10T12:26:16;20.30;99.90
23120;DHT22;11729;50.836;4.330;2023-05-10T12:28:42;20.20;99.90
23120;DHT22;11729;50.836;4.330;2023-05-10T12:31:08;20.10;99.90
23120;DHT22;11729;50.836;4.330;2023-05-10T12:33:38;20.30;99.90
23120;DHT22;11729;50.836;4.330;2023-05-10T12:36:05;20.20;99.90
23120;DHT22;11729;50.836;4.330;2023-05-10T12:38:35;20.90;99.90
23120;DHT22;11729;50.836;4.330;2023-05-10T12:41:04;21.50;99.90
23120;DHT22;11729;50.836;4.330;2023-05-10T12:43:31;21.90;99.90
23120;DHT22;11729;50.836;4.330;2023-05-10T12:45:57;22.40;99.90
23120;DHT22;11729;50.836;4.330;2023-05-10T12:48:24;22.70;99.90
23120;DHT22;11729;50.836;4.330;2023-05-10T12:50:50;23.70;99.90
23120;DHT22;11729;50.836;4.330;2023-05-10T12:53:16;24.50;99.90
23120;DHT22;11729;50.836;4.330;2023-05-10T12:55:43;24.20;99.90
23120;DHT22;11729;50.836;4.330;2023-05-10T12:58:08;23.70;99.90
23120;DHT22;11729;50.836;4.330;2023-05-10T13:00:34;23.40;99.90
23120;DHT22;11729;50.836;4.330;2023-05-10T13:03:00;22.70;99.90
23120;DHT22;11729;50.836;4.330;2023-05-10T13:05:26;22.60;99.90
23120;DHT22;11729;50.836;4.330;2023-05-10T13:07:51;23.30;99.90
23120;DHT22;11729;50.836;4.330;2023-05-10T13:10:17;23.40;99.90
23120;DHT22;11729;50.836;4.330;2023-05-10T13:12:42;23.90;99.90
23120;DHT22;11729;50.836;4.330;2023-05-10T13:15:08;24.10;99.90
23120;DHT22;11729;50.836;4.330;2023-05-10T13:17:34;24.90;99.90
23120;DHT22;11729;50.836;4.330;2023-05-10T13:20:00;25.40;99.90
23120;DHT22;11729;50.836;4.330;2023-05-10T13:22:26;26.50;99.90
23120;DHT22;11729;50.836;4.330;2023-05-10T13:24:51;26.30;99.90
23120;DHT22;11729;50.836;4.330;2023-05-10T13:27:17;26.90;99.90
23120;DHT22;11729;50.836;4.330;2023-05-10T13:29:42;26.60;99.90
23120;DHT22;11729;50.836;4.330;2023-05-10T13:32:08;27.00;99.90
23120;DHT22;11729;50.836;4.330;2023-05-10T13:34:34;27.50;99.90
23120;DHT22;11729;50.836;4.330;2023-05-10T13:37:01;27.30;99.90
23120;DHT22;11729;50.836;4.330;2023-05-10T13:39:27;27.80;99.00
23120;DHT22;11729;50.836;4.330;2023-05-10T13:41:53;27.30;98.90
23120;DHT22;11729;50.836;4.330;2023-05-10T13:44:20;26.30;99.90
23120;DHT22;11729;50.836;4.330;2023-05-10T13:46:47;25.60;99.90
23120;DHT22;11729;50.836;4.330;2023-05-10T13:49:12;25.20;99.90
23120;DHT22;11729;50.836;4.330;2023-05-10T13:51:38;24.70;99.90
23120;DHT22;11729;50.836;4.330;2023-05-10T13:54:04;24.60;99.90
23120;DHT22;11729;50.836;4.330;2023-05-10T13:56:30;23.70;99.90
23120;DHT22;11729;50.836;4.330;2023-05-10T13:58:59;23.30;99.90
23120;DHT22;11729;50.836;4.330;2023-05-10T14:01:24;22.40;99.90
23120;DHT22;11729;50.836;4.330;2023-05-10T14:03:51;21.60;99.90
23120;DHT22;11729;50.836;4.330;2023-05-10T14:06:17;21.30;99.90
23120;DHT22;11729;50.836;4.330;2023-05-10T14:08:42;21.30;99.90
23120;DHT22;11729;50.836;4.330;2023-05-10T14:11:08;21.20;99.90
23120;DHT22;11729;50.836;4.330;2023-05-10T14:13:34;20.90;99.90
23120;DHT22;11729;50.836;4.330;2023-05-10T14:16:00;20.20;99.90
23120;DHT22;11729;50.836;4.330;2023-05-10T14:18:28;20.10;99.90
23120;DHT22;11729;50.836;4.330;2023-05-10T14:20:54;20.20;99.90
23120;DHT22;11729;50.836;4.330;2023-05-10T14:23:22;20.50;99.90
23120;DHT22;11729;50.836;4.330;2023-05-10T14:25:51;20.50;99.90
23120;DHT22;11729;50.836;4.330;2023-05-10T14:28:17;20.50;99.90
23120;DHT22;11729;50.836;4.330;2023-05-10T14:30:44;20.90;99.90
23120;DHT22;11729;50.836;4.330;2023-05-10T14:33:10;20.90;99.90
23120;DHT22;11729;50.836;4.330;2023-05-10T14:35:35;20.90;99.90
23120;DHT22;11729;50.836;4.330;2023-05-10T14:38:02;21.10;99.90
23120;DHT22;11729;50.836;4.330;2023-05-10T14:40:29;21.00;99.90
23120;DHT22;11729;50.836;4.330;2023-05-10T14:42:55;20.50;99.90
23120;DHT22;11729;50.836;4.330;2023-05-10T14:45:21;20.30;99.90
23120;DHT22;11729;50.836;4.330;2023-05-10T14:47:48;19.70;99.90
23120;DHT22;11729;50.836;4.330;2023-05-10T14:50:13;19.70;99.90
23120;DHT22;11729;50.836;4.330;2023-05-10T14:52:39;19.70;99.90
23120;DHT22;11729;50.836;4.330;2023-05-10T14:55:05;19.60;99.90
23120;DHT22;11729;50.836;4.330;2023-05-10T14:57:31;19.70;99.90
23120;DHT22;11729;50.836;4.330;2023-05-10T14:59:57;19.30;99.90
23120;DHT22;11729;50.836;4.330;2023-05-10T15:02:23;19.10;99.90
23120;DHT22;11729;50.836;4.330;2023-05-10T15:04:49;18.70;99.90
23120;DHT22;11729;50.836;4.330;2023-05-10T15:07:14;18.50;99.90
23120;DHT22;11729;50.836;4.330;2023-05-10T15:09:42;17.90;99.90
23120;DHT22;11729;50.836;4.330;2023-05-10T15:12:08;17.80;99.90
23120;DHT22;11729;50.836;4.330;2023-05-10T15:14:33;17.40;99.90
23120;DHT22;11729;50.836;4.330;2023-05-10T15:17:02;17.10;99.90
23120;DHT22;11729;50.836;4.330;2023-05-10T15:19:28;16.90;99.90
23120;DHT22;11729;50.836;4.330;2023-05-10T15:21:55;16.90;99.90
23120;DHT22;11729;50.836;4.330;2023-05-10T15:24:21;16.70;99.90
23120;DHT22;11729;50.836;4.330;2023-05-10T15:26:47;16.90;99.90
23120;DHT22;11729;50.836;4.330;2023-05-10T15:29:13;16.80;99.90
23120;DHT22;11729;50.836;4.330;2023-05-10T15:31:46;17.00;99.90
23120;DHT22;11729;50.836;4.330;2023-05-10T15:34:12;17.10;99.90
23120;DHT22;11729;50.836;4.330;2023-05-10T15:36:38;17.00;99.90
23120;DHT22;11729;50.836;4.330;2023-05-10T15:39:03;17.00;99.90
23120;DHT22;11729;50.836;4.330;2023-05-10T15:41:29;17.30;99.90
23120;DHT22;11729;50.836;4.330;2023-05-10T15:43:55;17.50;99.90
23120;DHT22;11729;50.836;4.330;2023-05-10T15:46:21;17.70;99.90
23120;DHT22;11729;50.836;4.330;2023-05-10T15:48:47;17.60;99.90
23120;DHT22;11729;50.836;4.330;2023-05-10T15:51:12;18.00;99.90
23120;DHT22;11729;50.836;4.330;2023-05-10T15:53:38;18.00;99.90
23120;DHT22;11729;50.836;4.330;2023-05-10T15:56:04;18.20;99.90
23120;DHT22;11729;50.836;4.330;2023-05-10T15:58:30;18.40;99.90
23120;DHT22;11729;50.836;4.330;2023-05-10T16:00:56;18.40;99.90